Time;durP1;ratioP1;P1;durP2;ratioP2;P2;SDS_P1;SDS_P2;PMS_P1;PMS_P2;Temp;Humidity;BMP_temperature;BMP_pressure;BME280_temperature;BME280_humidity;BME280_pressure;Samples;Min_cycle;Max_cycle;Signal;HPM_P1;HPM_P2
2023/12/31 00:00:13;;;;;;;25.48;11.55;;;;;;;-146.82;100.00;71671.09;5032150;28;20479;-76
2023/12/31 00:02:38;;;;;;;18.13;10.90;;;;;;;-146.82;100.00;71671.09;5031983;28;20033;-75
2023/12/31 00:05:10;;;;;;;22.77;11.32;;;;;;;-146.82;100.00;71671.09;5030637;28;20025;-76
2023/12/31 00:07:35;;;;;;;24.13;11.40;;;;;;;-146.82;100.00;71671.09;5031900;28;20104;-76
2023/12/31 00:10:05;;;;;;;23.38;11.15;;;;;;;-146.82;100.00;71671.09;5031912;28;20068;-76
2023/12/31 00:12:32;;;;;;;25.27;12.05;;;;;;;-146.82;100.00;71671.09;5030575;28;20061;-75
2023/12/31 00:14:58;;;;;;;26.23;11.57;;;;;;;-146.82;100.00;71671.09;5032146;28;20037;-75
2023/12/31 00:17:26;;;;;;;22.20;11.15;;;;;;;-146.82;100.00;71671.09;5031935;28;20029;-75
2023/12/31 00:19:58;;;;;;;24.48;12.13;;;;;;;-146.82;100.00;71671.09;5032276;28;20040;-74
2023/12/31 00:22:25;;;;;;;19.48;11.57;;;;;;;-146.82;100.00;71671.09;5030734;28;20038;-75
2023/12/31 00:24:54;;;;;;;20.35;10.95;;;;;;;-146.82;100.00;71671.09;5030688;28;20375;-75
2023/12/31 00:27:20;;;;;;;23.75;11.80;;;;;;;-146.82;100.00;71671.09;5036688;28;20406;-75
2023/12/31 00:29:46;;;;;;;26.05;12.85;;;;;;;-146.82;100.00;71671.09;5034239;28;20043;-74
2023/12/31 00:32:15;;;;;;;19.33;11.00;;;;;;;-146.82;100.00;71671.09;5034621;28;20029;-75
2023/12/31 00:34:43;;;;;;;22.88;11.93;;;;;;;-146.82;100.00;71671.09;5033797;28;20030;-75
2023/12/31 00:37:09;;;;;;;21.00;10.80;;;;;;;-146.82;100.00;71671.09;5033237;28;20017;-75
2023/12/31 00:39:37;;;;;;;24.92;11.73;;;;;;;-146.82;100.00;71671.09;5035125;28;20483;-74
2023/12/31 00:42:02;;;;;;;25.70;11.85;;;;;;;-146.82;100.00;71671.09;5036840;28;20493;-74
2023/12/31 00:44:28;;;;;;;20.10;11.68;;;;;;;-146.82;100.00;71671.09;5036477;28;20021;-74
2023/12/31 00:46:55;;;;;;;22.98;11.88;;;;;;;-146.82;100.00;71671.09;5033863;28;20496;-75
2023/12/31 00:49:21;;;;;;;22.83;11.93;;;;;;;-146.82;100.00;71671.09;5035745;28;20379;-74
2023/12/31 00:51:48;;;;;;;31.02;13.43;;;;;;;-146.82;100.00;71671.09;5035985;28;20025;-76
2023/12/31 00:54:13;;;;;;;33.80;15.88;;;;;;;-146.82;100.00;71671.09;5035485;28;20043;-75
2023/12/31 00:56:44;;;;;;;34.10;16.05;;;;;;;-146.82;100.00;71671.09;5035050;28;20105;-73
2023/12/31 00:59:10;;;;;;;33.03;15.60;;;;;;;-146.82;100.00;71671.09;5033697;28;20017;-76
2023/12/31 01:01:36;;;;;;;30.52;16.35;;;;;;;-146.82;100.00;71671.09;5034769;28;20041;-75
2023/12/31 01:04:08;;;;;;;35.78;15.93;;;;;;;-146.82;100.00;71671.09;5034819;28;20052;-75
2023/12/31 01:06:45;;;;;;;30.35;16.52;;;;;;;-146.82;100.00;71671.09;5034937;28;20028;-74
2023/12/31 01:09:11;;;;;;;29.73;16.58;;;;;;;-146.82;100.00;71671.09;5036047;28;20091;-75
2023/12/31 01:11:36;;;;;;;30.60;15.95;;;;;;;-146.82;100.00;71671.09;5034164;28;20486;-74
2023/12/31 01:14:02;;;;;;;29.33;14.68;;;;;;;-146.82;100.00;71671.09;5034830;28;20030;-74
2023/12/31 01:16:54;;;;;;;30.67;15.60;;;;;;;-146.82;100.00;71671.09;5034635;28;20034;-75
2023/12/31 01:19:34;;;;;;;31.17;16.05;;;;;;;-146.82;100.00;71671.09;5034301;28;20084;-76
2023/12/31 01:21:59;;;;;;;30.40;15.25;;;;;;;-146.82;100.00;71671.09;5034865;28;20459;-75
2023/12/31 01:24:25;;;;;;;27.23;14.75;;;;;;;-146.82;100.00;71671.09;5034837;28;20097;-75
2023/12/31 01:26:52;;;;;;;26.73;14.15;;;;;;;-146.82;100.00;71671.09;5034412;28;20056;-76
2023/12/31 01:29:19;;;;;;;21.83;13.27;;;;;;;-146.82;100.00;71671.09;5035780;28;20029;-75
2023/12/31 01:31:46;;;;;;;25.70;12.48;;;;;;;-146.82;100.00;71671.09;5035484;28;20025;-75
2023/12/31 01:34:12;;;;;;;23.23;13.40;;;;;;;-146.82;100.00;71671.09;5035439;28;20104;-74
2023/12/31 01:36:39;;;;;;;23.00;11.55;;;;;;;-146.82;100.00;71671.09;5035441;28;20031;-76
2023/12/31 01:39:07;;;;;;;24.33;13.68;;;;;;;-146.82;100.00;71671.09;5036130;28;20479;-74
2023/12/31 01:41:32;;;;;;;25.08;13.98;;;;;;;-146.82;100.00;71671.09;5034229;28;20079;-74
2023/12/31 01:44:10;;;;;;;26.77;13.27;;;;;;;-146.82;100.00;71671.09;5034364;28;20033;-74
2023/12/31 01:46:36;;;;;;;19.30;11.90;;;;;;;-146.82;100.00;71671.09;5035463;28;20374;-74
2023/12/31 01:49:05;;;;;;;24.15;12.50;;;;;;;-146.82;100.00;71671.09;5033885;28;20489;-74
2023/12/31 01:51:32;;;;;;;22.10;12.10;;;;;;;-146.82;100.00;71671.09;5034835;28;20025;-76
2023/12/31 01:54:08;;;;;;;22.85;12.65;;;;;;;-146.82;100.00;71671.09;5035577;28;20116;-75
2023/12/31 01:56:37;;;;;;;20.40;12.30;;;;;;;-146.82;100.00;71671.09;5035252;28;20037;-75
2023/12/31 01:59:07;;;;;;;27.50;11.52;;;;;;;-146.82;100.00;71671.09;5033904;28;20034;-75
2023/12/31 02:01:35;;;;;;;23.40;12.23;;;;;;;-146.82;100.00;71671.09;5033857;28;20045;-75
2023/12/31 02:04:02;;;;;;;22.73;11.68;;;;;;;-146.82;100.00;71671.09;5018032;28;20029;-75
2023/12/31 02:06:29;;;;;;;22.80;11.38;;;;;;;-146.82;100.00;71671.09;5034959;28;20450;-76
2023/12/31 02:08:55;;;;;;;22.58;12.77;;;;;;;-146.82;100.00;71671.09;5035170;28;20027;-75
2023/12/31 02:11:22;;;;;;;20.45;11.80;;;;;;;-146.82;100.00;71671.09;5033522;28;20033;-74
2023/12/31 02:13:48;;;;;;;23.92;12.15;;;;;;;-146.82;100.00;71671.09;5033405;28;20033;-75
2023/12/31 02:16:19;;;;;;;21.55;12.52;;;;;;;-146.82;100.00;71671.09;5034804;28;20108;-76
2023/12/31 02:18:44;;;;;;;18.45;12.48;;;;;;;-146.82;100.00;71671.09;5033788;28;20049;-74
2023/12/31 02:21:12;;;;;;;21.13;12.20;;;;;;;-146.82;100.00;71671.09;5033428;28;20438;-73
2023/12/31 02:23:39;;;;;;;20.60;12.20;;;;;;;-146.82;100.00;71671.09;5034563;28;20429;-75
2023/12/31 02:26:11;;;;;;;25.13;13.57;;;;;;;-146.82;100.00;71671.09;5016757;28;20042;-76
2023/12/31 02:28:36;;;;;;;22.10;12.50;;;;;;;-146.82;100.00;71671.09;5034509;28;20023;-75
2023/12/31 02:31:05;;;;;;;24.63;13.45;;;;;;;-146.82;100.00;71671.09;5016812;28;20428;-75
2023/12/31 02:33:35;;;;;;;23.15;11.82;;;;;;;-146.82;100.00;71671.09;5033069;28;20026;-75
2023/12/31 02:36:02;;;;;;;25.60;12.40;;;;;;;-146.82;100.00;71671.09;5017529;28;20071;-74
2023/12/31 02:38:28;;;;;;;23.73;12.77;;;;;;;-146.82;100.00;71671.09;5033942;28;20025;-74
2023/12/31 02:41:00;;;;;;;24.52;13.18;;;;;;;-146.82;100.00;71671.09;5033726;28;20036;-75
2023/12/31 02:43:25;;;;;;;28.92;13.60;;;;;;;-146.82;100.00;71671.09;5033213;28;20018;-75
2023/12/31 02:45:52;;;;;;;26.33;13.32;;;;;;;-146.82;100.00;71671.09;5033625;28;20036;-75
2023/12/31 02:48:17;;;;;;;23.77;13.43;;;;;;;-146.82;100.00;71671.09;5033013;28;20022;-74
2023/12/31 02:50:44;;;;;;;22.08;12.85;;;;;;;-146.82;100.00;71671.09;5028980;28;20033;-75
2023/12/31 02:53:09;;;;;;;26.25;13.88;;;;;;;-146.82;100.00;71671.09;5032878;28;20040;-76
2023/12/31 02:55:35;;;;;;;25.48;11.85;;;;;;;-146.82;100.00;71671.09;5032757;28;20025;-75
2023/12/31 02:58:06;;;;;;;30.20;14.02;;;;;;;-146.82;100.00;71671.09;5033066;28;20510;-76
2023/12/31 03:00:31;;;;;;;32.35;15.35;;;;;;;-146.82;100.00;71671.09;5033261;28;20048;-75
2023/12/31 03:03:00;;;;;;;30.00;14.65;;;;;;;-146.82;100.00;71671.09;5032043;28;20053;-73
2023/12/31 03:05:33;;;;;;;30.05;16.60;;;;;;;-146.82;100.00;71671.09;5032874;28;20474;-75
2023/12/31 03:07:59;;;;;;;31.52;17.40;;;;;;;-146.82;100.00;71671.09;5032915;28;20544;-75
2023/12/31 03:10:26;;;;;;;33.40;16.30;;;;;;;-146.82;100.00;71671.09;5032654;28;20037;-73
2023/12/31 03:12:54;;;;;;;28.73;15.15;;;;;;;-146.82;100.00;71671.09;4998663;28;20045;-73
2023/12/31 03:15:21;;;;;;;32.72;16.35;;;;;;;-146.82;100.00;71671.09;5033715;28;20021;-74
2023/12/31 03:17:46;;;;;;;37.33;16.23;;;;;;;-146.82;100.00;71671.09;5033416;28;20044;-74
2023/12/31 03:20:13;;;;;;;33.80;16.27;;;;;;;-146.82;100.00;71671.09;5033955;28;20105;-75
2023/12/31 03:22:40;;;;;;;28.85;17.00;;;;;;;-146.82;100.00;71671.09;5032650;28;20489;-73
2023/12/31 03:25:06;;;;;;;31.35;17.67;;;;;;;-146.82;100.00;71671.09;5033484;28;20068;-75
2023/12/31 03:27:31;;;;;;;32.65;18.58;;;;;;;-146.82;100.00;71671.09;5034272;28;20049;-74
2023/12/31 03:29:58;;;;;;;33.20;17.08;;;;;;;-146.82;100.00;71671.09;5033953;28;20440;-76
2023/12/31 03:32:25;;;;;;;33.30;17.05;;;;;;;-146.82;100.00;71671.09;5032223;28;20034;-75
2023/12/31 03:34:53;;;;;;;30.60;17.13;;;;;;;-146.82;100.00;71671.09;5033633;28;20403;-75
2023/12/31 03:37:22;;;;;;;33.05;16.05;;;;;;;-146.82;100.00;71671.09;5033335;28;20030;-74
2023/12/31 03:39:51;;;;;;;35.75;17.02;;;;;;;-146.82;100.00;71671.09;5033334;28;20021;-75
2023/12/31 03:42:25;;;;;;;31.88;16.35;;;;;;;-146.82;100.00;71671.09;5033283;28;20490;-74
2023/12/31 03:44:52;;;;;;;27.23;14.15;;;;;;;-146.82;100.00;71671.09;5033494;28;20029;-75
2023/12/31 03:47:17;;;;;;;34.42;17.15;;;;;;;-146.82;100.00;71671.09;5033885;28;20033;-74
2023/12/31 03:49:43;;;;;;;30.42;17.33;;;;;;;-146.82;100.00;71671.09;5033450;28;20037;-73
2023/12/31 03:52:10;;;;;;;28.27;16.10;;;;;;;-146.82;100.00;71671.09;5015339;28;20022;-75
2023/12/31 03:54:41;;;;;;;32.45;17.55;;;;;;;-146.82;100.00;71671.09;5033603;28;20035;-75
2023/12/31 03:57:09;;;;;;;29.23;15.65;;;;;;;-146.82;100.00;71671.09;5033058;28;20036;-74
2023/12/31 03:59:36;;;;;;;36.10;18.45;;;;;;;-146.82;100.00;71671.09;5033412;28;20014;-75
2023/12/31 04:02:04;;;;;;;38.28;19.00;;;;;;;-146.82;100.00;71671.09;5033738;28;20036;-76
2023/12/31 04:04:30;;;;;;;36.60;19.95;;;;;;;-146.82;100.00;71671.09;5033550;28;20079;-74
2023/12/31 04:06:56;;;;;;;37.20;19.02;;;;;;;-146.82;100.00;71671.09;5033046;28;20036;-74
2023/12/31 04:09:36;;;;;;;40.22;21.77;;;;;;;-146.82;100.00;71671.09;5033563;28;20025;-75
2023/12/31 04:12:04;;;;;;;30.92;19.45;;;;;;;-146.82;100.00;71671.09;5033053;28;20060;-74
2023/12/31 04:14:31;;;;;;;35.90;19.75;;;;;;;-146.82;100.00;71671.09;5035716;28;20029;-73
2023/12/31 04:16:56;;;;;;;36.90;19.77;;;;;;;-146.82;100.00;71671.09;5037209;28;20129;-75
2023/12/31 04:19:24;;;;;;;37.33;20.80;;;;;;;-146.82;100.00;71671.09;5037345;28;20401;-76
2023/12/31 04:21:50;;;;;;;34.42;19.98;;;;;;;-146.82;100.00;71671.09;5037045;28;20108;-75
2023/12/31 04:24:17;;;;;;;36.05;18.40;;;;;;;-146.82;100.00;71671.09;5036769;28;20032;-75
2023/12/31 04:26:44;;;;;;;44.20;20.65;;;;;;;-146.82;100.00;71671.09;5037038;28;20083;-76
2023/12/31 04:29:11;;;;;;;36.20;19.42;;;;;;;-146.82;100.00;71671.09;5035540;28;20029;-74
2023/12/31 04:31:45;;;;;;;36.47;19.58;;;;;;;-146.82;100.00;71671.09;5036642;28;20071;-74
2023/12/31 04:34:11;;;;;;;34.42;17.88;;;;;;;-146.82;100.00;71671.09;5036053;28;20171;-75
2023/12/31 04:36:37;;;;;;;34.92;17.33;;;;;;;-146.82;100.00;71671.09;5036731;28;20056;-75
2023/12/31 04:39:03;;;;;;;39.05;18.77;;;;;;;-146.82;100.00;71671.09;5035518;28;20037;-74
2023/12/31 04:41:28;;;;;;;38.30;18.60;;;;;;;-146.82;100.00;71671.09;5035497;28;20033;-74
2023/12/31 04:43:55;;;;;;;34.08;18.65;;;;;;;-146.82;100.00;71671.09;5036569;28;20025;-76
2023/12/31 04:46:21;;;;;;;32.45;17.00;;;;;;;-146.82;100.00;71671.09;5036733;28;20111;-75
2023/12/31 04:48:48;;;;;;;39.00;19.23;;;;;;;-146.82;100.00;71671.09;5036690;28;20044;-75
2023/12/31 04:51:27;;;;;;;37.80;18.80;;;;;;;-146.82;100.00;71671.09;5036902;28;20033;-75
2023/12/31 04:53:55;;;;;;;40.80;20.13;;;;;;;-146.82;100.00;71671.09;5035131;28;20099;-73
2023/12/31 04:56:29;;;;;;;36.40;20.13;;;;;;;-146.82;100.00;71671.09;5035016;28;20037;-75
2023/12/31 04:59:00;;;;;;;37.83;19.80;;;;;;;-146.82;100.00;71671.09;5036339;28;20033;-75
2023/12/31 05:01:35;;;;;;;38.40;20.45;;;;;;;-146.82;100.00;71671.09;5036685;28;20030;-76
2023/12/31 05:04:15;;;;;;;39.72;21.38;;;;;;;-146.82;100.00;71671.09;5034919;28;20051;-74
2023/12/31 05:06:41;;;;;;;38.85;19.30;;;;;;;-146.82;100.00;71671.09;5036155;28;20025;-74
2023/12/31 05:09:08;;;;;;;41.13;20.25;;;;;;;-146.82;100.00;71671.09;5037759;28;20040;-74
2023/12/31 05:11:35;;;;;;;44.40;22.30;;;;;;;-146.82;100.00;71671.09;5036036;28;20560;-75
2023/12/31 05:14:02;;;;;;;37.47;20.08;;;;;;;-146.82;100.00;71671.09;5018236;28;20386;-74
2023/12/31 05:16:31;;;;;;;40.75;21.67;;;;;;;-146.82;100.00;71671.09;5036148;28;20030;-73
2023/12/31 05:18:59;;;;;;;45.13;21.17;;;;;;;-146.82;100.00;71671.09;5035896;28;20025;-75
2023/12/31 05:21:25;;;;;;;43.53;22.50;;;;;;;-146.82;100.00;71671.09;5035874;28;20033;-74
2023/12/31 05:23:52;;;;;;;40.78;20.35;;;;;;;-146.82;100.00;71671.09;5035771;28;20022;-73
2023/12/31 05:26:18;;;;;;;45.22;24.10;;;;;;;-146.82;100.00;71671.09;5032833;28;20052;-75
2023/12/31 05:28:44;;;;;;;49.38;25.55;;;;;;;-146.82;100.00;71671.09;5035880;28;20033;-74
2023/12/31 05:31:11;;;;;;;41.00;23.85;;;;;;;-146.82;100.00;71671.09;5033990;28;20045;-74
2023/12/31 05:33:38;;;;;;;42.95;24.90;;;;;;;-146.82;100.00;71671.09;5048162;28;20029;-73
2023/12/31 05:36:04;;;;;;;43.90;24.48;;;;;;;-146.82;100.00;71671.09;5052845;28;20033;-76
2023/12/31 05:38:29;;;;;;;54.13;25.23;;;;;;;-146.82;100.00;71671.09;5053889;28;20021;-74
2023/12/31 05:40:55;;;;;;;48.63;25.20;;;;;;;-146.82;100.00;71671.09;5054077;28;20037;-74
2023/12/31 05:43:20;;;;;;;48.42;24.52;;;;;;;-146.82;100.00;71671.09;5054293;28;20102;-74
2023/12/31 05:45:47;;;;;;;42.38;23.08;;;;;;;-146.82;100.00;71671.09;5054033;28;20028;-75
2023/12/31 05:48:15;;;;;;;38.50;20.58;;;;;;;-146.82;100.00;71671.09;5055121;28;20560;-75
2023/12/31 05:50:41;;;;;;;42.70;22.00;;;;;;;-146.82;100.00;71671.09;5055341;28;20475;-74
2023/12/31 05:53:09;;;;;;;47.38;24.67;;;;;;;-146.82;100.00;71671.09;5054100;28;20033;-74
2023/12/31 05:55:36;;;;;;;42.08;23.02;;;;;;;-146.82;100.00;71671.09;5055495;28;20457;-73
2023/12/31 05:58:02;;;;;;;45.63;24.13;;;;;;;-146.82;100.00;71671.09;5055773;28;20021;-73
2023/12/31 06:00:28;;;;;;;41.65;21.67;;;;;;;-146.82;100.00;71671.09;5055410;28;20036;-73
2023/12/31 06:02:54;;;;;;;41.85;20.73;;;;;;;-146.82;100.00;71671.09;5055414;28;20033;-74
2023/12/31 06:05:22;;;;;;;42.85;21.95;;;;;;;-146.82;100.00;71671.09;5053740;28;20139;-76
2023/12/31 06:07:50;;;;;;;40.05;20.80;;;;;;;-146.82;100.00;71671.09;5054873;28;20043;-74
2023/12/31 06:10:15;;;;;;;44.00;22.40;;;;;;;-146.82;100.00;71671.09;5054906;28;20048;-74
2023/12/31 06:12:43;;;;;;;41.60;20.88;;;;;;;-146.82;100.00;71671.09;5054813;28;20025;-75
2023/12/31 06:15:10;;;;;;;40.22;20.83;;;;;;;-146.82;100.00;71671.09;5053418;28;20040;-75
2023/12/31 06:17:51;;;;;;;40.38;21.45;;;;;;;-146.82;100.00;71671.09;5054721;28;20063;-74
2023/12/31 06:20:19;;;;;;;40.28;20.73;;;;;;;-146.82;100.00;71671.09;5054735;28;20071;-74
2023/12/31 06:22:46;;;;;;;36.65;21.45;;;;;;;-146.82;100.00;71671.09;5054889;28;20079;-74
2023/12/31 06:25:13;;;;;;;42.83;22.23;;;;;;;-146.82;100.00;71671.09;5054548;28;20137;-75
2023/12/31 06:27:39;;;;;;;39.67;23.55;;;;;;;-146.82;100.00;71671.09;5054639;28;20037;-74
2023/12/31 06:30:07;;;;;;;42.00;22.65;;;;;;;-146.82;100.00;71671.09;5054709;28;20087;-74
2023/12/31 06:32:36;;;;;;;50.80;23.35;;;;;;;-146.82;100.00;71671.09;5053191;28;20036;-74
2023/12/31 06:35:03;;;;;;;42.35;22.88;;;;;;;-146.82;100.00;71671.09;5054689;28;20048;-75
2023/12/31 06:37:28;;;;;;;41.92;22.77;;;;;;;-146.82;100.00;71671.09;5054174;28;20048;-74
2023/12/31 06:39:54;;;;;;;48.47;23.20;;;;;;;-146.82;100.00;71671.09;5054192;28;20382;-75
2023/12/31 06:42:22;;;;;;;44.03;23.48;;;;;;;-146.82;100.00;71671.09;5054263;28;20057;-73
2023/12/31 06:44:49;;;;;;;49.22;24.50;;;;;;;-146.82;100.00;71671.09;5054213;28;20029;-74
2023/12/31 06:47:16;;;;;;;42.22;23.83;;;;;;;-146.82;100.00;71671.09;5054086;28;20033;-74
2023/12/31 06:49:43;;;;;;;47.20;24.20;;;;;;;-146.82;100.00;71671.09;5052672;28;20028;-74
2023/12/31 06:52:09;;;;;;;43.58;24.15;;;;;;;-146.82;100.00;71671.09;5052729;28;20470;-74
2023/12/31 06:54:35;;;;;;;46.40;25.02;;;;;;;-146.82;100.00;71671.09;5053982;28;20028;-75
2023/12/31 06:57:02;;;;;;;51.90;26.83;;;;;;;-146.82;100.00;71671.09;5052610;28;20033;-76
2023/12/31 06:59:28;;;;;;;49.45;26.70;;;;;;;-146.82;100.00;71671.09;5053859;28;20032;-75
2023/12/31 07:01:54;;;;;;;54.35;26.10;;;;;;;-146.82;100.00;71671.09;5053689;28;20389;-74
2023/12/31 07:04:20;;;;;;;58.08;25.80;;;;;;;-146.82;100.00;71671.09;5054154;28;20099;-76
2023/12/31 07:06:46;;;;;;;48.08;25.17;;;;;;;-146.82;100.00;71671.09;5053846;28;20413;-76
2023/12/31 07:09:12;;;;;;;44.92;23.50;;;;;;;-146.82;100.00;71671.09;5053830;28;20028;-73
2023/12/31 07:11:38;;;;;;;59.42;25.90;;;;;;;-146.82;100.00;71671.09;5053752;28;20037;-77
2023/12/31 07:14:03;;;;;;;50.22;23.42;;;;;;;-146.82;100.00;71671.09;5053886;28;20029;-75
2023/12/31 07:16:30;;;;;;;47.60;24.10;;;;;;;-146.82;100.00;71671.09;5035808;28;20025;-75
2023/12/31 07:18:57;;;;;;;44.00;23.55;;;;;;;-146.82;100.00;71671.09;5052521;28;20031;-74
2023/12/31 07:21:23;;;;;;;50.42;25.15;;;;;;;-146.82;100.00;71671.09;5053649;28;20075;-74
2023/12/31 07:23:50;;;;;;;57.00;25.65;;;;;;;-146.82;100.00;71671.09;5052010;28;20037;-76
2023/12/31 07:26:27;;;;;;;48.20;24.15;;;;;;;-146.82;100.00;71671.09;5053047;28;20049;-74
2023/12/31 07:28:53;;;;;;;48.60;25.52;;;;;;;-146.82;100.00;71671.09;5053395;28;20032;-75
2023/12/31 07:31:20;;;;;;;50.00;24.08;;;;;;;-146.82;100.00;71671.09;5052261;28;20455;-75
2023/12/31 07:33:48;;;;;;;41.80;22.40;;;;;;;-146.82;100.00;71671.09;5053245;28;20029;-77
2023/12/31 07:36:15;;;;;;;43.92;22.38;;;;;;;-146.82;100.00;71671.09;5051835;28;20041;-75
2023/12/31 07:38:45;;;;;;;42.97;22.60;;;;;;;-146.82;100.00;71671.09;5053408;28;20035;-74
2023/12/31 07:41:12;;;;;;;46.38;22.80;;;;;;;-146.82;100.00;71671.09;5053186;28;20029;-74
2023/12/31 07:43:40;;;;;;;39.08;21.75;;;;;;;-146.82;100.00;71671.09;5035339;28;20120;-74
2023/12/31 07:46:06;;;;;;;42.20;22.90;;;;;;;-146.82;100.00;71671.09;5052434;28;20039;-78
2023/12/31 07:48:32;;;;;;;39.88;21.45;;;;;;;-146.82;100.00;71671.09;5052697;28;20033;-81
2023/12/31 07:50:59;;;;;;;44.10;23.02;;;;;;;-146.82;100.00;71671.09;5053205;28;20488;-83
2023/12/31 07:53:24;;;;;;;43.25;22.80;;;;;;;-146.82;100.00;71671.09;5052328;28;20032;-84
2023/12/31 07:55:50;;;;;;;41.55;22.50;;;;;;;-146.82;100.00;71671.09;5054309;28;20031;-77
2023/12/31 07:58:17;;;;;;;39.30;21.38;;;;;;;-146.82;100.00;71671.09;5052950;28;20420;-76
2023/12/31 08:00:46;;;;;;;41.08;18.48;;;;;;;-146.82;100.00;71671.09;5053167;28;20094;-78
2023/12/31 08:03:12;;;;;;;39.90;20.85;;;;;;;-146.82;100.00;71671.09;5053348;28;20025;-79
2023/12/31 08:05:39;;;;;;;38.75;20.55;;;;;;;-146.82;100.00;71671.09;5052087;28;20037;-78
2023/12/31 08:08:07;;;;;;;40.58;21.10;;;;;;;-146.82;100.00;71671.09;5053363;28;20033;-78
2023/12/31 08:10:35;;;;;;;40.30;22.27;;;;;;;-146.82;100.00;71671.09;5053317;28;20486;-76
2023/12/31 08:13:02;;;;;;;40.78;21.60;;;;;;;-146.82;100.00;71671.09;5053344;28;20044;-79
2023/12/31 08:15:30;;;;;;;40.53;21.33;;;;;;;-146.82;100.00;71671.09;5053105;28;20041;-80
2023/12/31 08:17:57;;;;;;;41.08;21.70;;;;;;;-146.82;100.00;71671.09;5051955;28;20136;-80
2023/12/31 08:20:24;;;;;;;40.50;21.67;;;;;;;-146.82;100.00;71671.09;5054222;28;20051;-79
2023/12/31 08:22:52;;;;;;;34.78;19.40;;;;;;;-146.82;100.00;71671.09;5053992;28;20052;-80
2023/12/31 08:25:20;;;;;;;40.58;20.52;;;;;;;-146.82;100.00;71671.09;5051640;28;20478;-78
2023/12/31 08:27:45;;;;;;;38.38;19.42;;;;;;;-146.82;100.00;71671.09;5052870;28;20420;-78
2023/12/31 08:30:14;;;;;;;39.42;19.42;;;;;;;-146.82;100.00;71671.09;5051407;28;20124;-79
2023/12/31 08:32:40;;;;;;;33.40;18.40;;;;;;;-146.82;100.00;71671.09;5051349;28;20454;-78
2023/12/31 08:35:23;;;;;;;35.30;19.30;;;;;;;-146.82;100.00;71671.09;5052750;28;20074;-77
2023/12/31 08:37:49;;;;;;;34.75;19.02;;;;;;;-146.82;100.00;71671.09;5053088;28;20032;-75
2023/12/31 08:40:19;;;;;;;35.63;17.88;;;;;;;-146.82;100.00;71671.09;5052830;28;20028;-79
2023/12/31 08:42:45;;;;;;;38.55;19.08;;;;;;;-146.82;100.00;71671.09;5053044;28;20024;-81
2023/12/31 08:45:11;;;;;;;35.97;17.98;;;;;;;-146.82;100.00;71671.09;5051517;28;20021;-80
2023/12/31 08:47:39;;;;;;;34.25;18.80;;;;;;;-146.82;100.00;71671.09;5052732;28;20138;-76
2023/12/31 08:50:21;;;;;;;30.23;17.20;;;;;;;-146.82;100.00;71671.09;5051375;28;20052;-77
2023/12/31 08:52:48;;;;;;;29.98;16.63;;;;;;;-146.82;100.00;71671.09;5052748;28;20025;-77
2023/12/31 08:55:14;;;;;;;36.08;18.95;;;;;;;-146.82;100.00;71671.09;5051531;28;20111;-74
2023/12/31 08:57:47;;;;;;;32.80;16.92;;;;;;;-146.82;100.00;71671.09;5051821;28;20063;-77
2023/12/31 09:00:34;;;;;;;33.45;18.02;;;;;;;-146.82;100.00;71671.09;5052826;28;20029;-74
2023/12/31 09:02:59;;;;;;;31.30;17.30;;;;;;;-146.82;100.00;71671.09;5056024;28;20087;-76
2023/12/31 09:05:25;;;;;;;29.38;17.95;;;;;;;-146.82;100.00;71671.09;5054731;28;20033;-78
2023/12/31 09:07:50;;;;;;;39.08;18.75;;;;;;;-146.82;100.00;71671.09;5056147;28;20044;-81
2023/12/31 09:10:17;;;;;;;29.73;17.58;;;;;;;-146.82;100.00;71671.09;5056096;28;20029;-79
2023/12/31 09:12:43;;;;;;;31.55;18.45;;;;;;;-146.82;100.00;71671.09;5054700;28;20187;-77
2023/12/31 09:15:10;;;;;;;31.45;17.88;;;;;;;-146.82;100.00;71671.09;5054761;28;20466;-79
2023/12/31 09:17:37;;;;;;;31.08;16.23;;;;;;;-146.82;100.00;71671.09;5057035;28;20012;-80
2023/12/31 09:20:11;;;;;;;32.33;17.23;;;;;;;-146.82;100.00;71671.09;5063632;28;20469;-79
2023/12/31 09:22:37;;;;;;;31.05;16.55;;;;;;;-146.82;100.00;71671.09;5058043;28;20424;-76
2023/12/31 09:25:06;;;;;;;28.83;15.90;;;;;;;-146.82;100.00;71671.09;5075773;28;20041;-77
2023/12/31 09:27:31;;;;;;;30.83;17.27;;;;;;;-146.82;100.00;71671.09;5075508;28;20054;-78
2023/12/31 09:30:00;;;;;;;33.83;17.00;;;;;;;-146.82;100.00;71671.09;5074620;28;20032;-77
2023/12/31 09:32:28;;;;;;;31.52;17.42;;;;;;;-146.82;100.00;71671.09;5075380;28;20035;-78
2023/12/31 09:34:54;;;;;;;29.15;16.88;;;;;;;-146.82;100.00;71671.09;5075294;28;20060;-78
2023/12/31 09:37:20;;;;;;;25.42;14.93;;;;;;;-146.82;100.00;71671.09;5074596;28;20686;-78
2023/12/31 09:39:47;;;;;;;29.38;15.15;;;;;;;-146.82;100.00;71671.09;5074196;28;20515;-78
2023/12/31 09:42:13;;;;;;;24.92;15.27;;;;;;;-146.82;100.00;71671.09;5073520;28;20377;-77
2023/12/31 09:44:41;;;;;;;26.00;14.90;;;;;;;-146.82;100.00;71671.09;5073195;28;20484;-77
2023/12/31 09:47:08;;;;;;;25.48;14.65;;;;;;;-146.82;100.00;71671.09;5075320;28;20067;-77
2023/12/31 09:49:34;;;;;;;22.05;13.85;;;;;;;-146.82;100.00;71671.09;5075329;28;20462;-79
2023/12/31 09:52:03;;;;;;;27.63;15.25;;;;;;;-146.82;100.00;71671.09;5073958;28;20035;-79
2023/12/31 09:54:30;;;;;;;27.38;15.10;;;;;;;-146.82;100.00;71671.09;5065306;28;20032;-79
2023/12/31 09:56:57;;;;;;;31.05;15.60;;;;;;;-146.82;100.00;71671.09;5052890;28;20032;-78
2023/12/31 09:59:24;;;;;;;27.27;14.82;;;;;;;-146.82;100.00;71671.09;5070182;28;20078;-80
2023/12/31 10:01:51;;;;;;;23.00;13.77;;;;;;;-146.82;100.00;71671.09;5058855;28;20025;-77
2023/12/31 10:04:17;;;;;;;27.70;14.20;;;;;;;-146.82;100.00;71671.09;5055945;28;20016;-78
2023/12/31 10:06:43;;;;;;;29.20;14.68;;;;;;;-146.82;100.00;71671.09;5057396;28;20089;-79
2023/12/31 10:09:08;;;;;;;27.50;14.20;;;;;;;-146.82;100.00;71671.09;5042190;28;20060;-77
2023/12/31 10:11:35;;;;;;;30.10;15.07;;;;;;;-146.82;100.00;71671.09;5069341;28;20040;-77
2023/12/31 10:14:01;;;;;;;28.85;16.27;;;;;;;-146.82;100.00;71671.09;5053295;28;20031;-79
2023/12/31 10:16:34;;;;;;;30.75;16.52;;;;;;;-146.82;100.00;71671.09;5063128;28;20032;-76
2023/12/31 10:19:00;;;;;;;26.98;15.27;;;;;;;-146.82;100.00;71671.09;5050773;28;20036;-78
2023/12/31 10:21:26;;;;;;;31.77;16.77;;;;;;;-146.82;100.00;71671.09;5040253;28;20382;-77
2023/12/31 10:23:51;;;;;;;30.17;17.80;;;;;;;-146.82;100.00;71671.09;5069791;28;20511;-78
2023/12/31 10:26:17;;;;;;;32.83;16.50;;;;;;;-146.82;100.00;71671.09;5062695;28;20041;-80
2023/12/31 10:28:42;;;;;;;30.90;17.08;;;;;;;-146.82;100.00;71671.09;5057269;28;20033;-78
2023/12/31 10:31:08;;;;;;;28.40;16.67;;;;;;;-146.82;100.00;71671.09;5044666;28;20020;-79
2023/12/31 10:33:36;;;;;;;26.85;16.17;;;;;;;-146.82;100.00;71671.09;5044990;28;20548;-79
2023/12/31 10:36:05;;;;;;;30.63;16.88;;;;;;;-146.82;100.00;71671.09;5047098;28;20492;-78
2023/12/31 10:38:43;;;;;;;27.30;16.40;;;;;;;-146.82;100.00;71671.09;5054726;28;20041;-78
2023/12/31 10:41:14;;;;;;;29.65;16.20;;;;;;;-146.82;100.00;71671.09;5052547;28;20025;-77
2023/12/31 10:43:40;;;;;;;38.58;17.27;;;;;;;-146.82;100.00;71671.09;5071107;28;20040;-78
2023/12/31 10:46:07;;;;;;;33.53;16.67;;;;;;;-146.82;100.00;71671.09;5059001;28;20017;-77
2023/12/31 10:48:33;;;;;;;26.23;14.82;;;;;;;-146.82;100.00;71671.09;5050283;28;20060;-80
2023/12/31 10:51:01;;;;;;;31.08;15.82;;;;;;;-146.82;100.00;71671.09;5041602;28;20104;-78
2023/12/31 10:53:28;;;;;;;30.15;15.32;;;;;;;-146.82;100.00;71671.09;5051173;28;20033;-77
2023/12/31 10:55:54;;;;;;;24.75;14.35;;;;;;;-146.82;100.00;71671.09;5051957;28;20020;-78